Oakland, CA (94614)

6:06 PM PDT on August 03, 2015 (GMT -0700)
APRSWXNET | | Change Station
CLOSE
Current Station
Personal Weather Station
Location: Oakland, CA
Elevation: 26 ft
Nearby Weather Stations

Elev 26 ft 37.71 °N, 122.19 °W | Updated 23 minutes ago

Scattered Clouds
Scattered Clouds
70 °F
Feels Like 70 °F
N
12
Wind Variable Wind from West
Gusts 0.0 mph

Today
High -- | Low -- °F
--% Chance of Precip.
Yesterday
High -- | Low -- °F
Precip. -- in
6:14 AM 8:15 PM
Waning Gibbous, 82% visible
Pressure 29.93 in
Visibility 10.0 miles
Clouds Few 2400 ft
Scattered Clouds 20000 ft
Dew Point 55 °F
Humidity 59%
Rainfall in
Snow Depth Not available.
UV 2 out of 12
Pollen 4.30 out of 12
Air Quality Not available.
Flu Activity Not available.
METAR KOAK 040053Z 26017KT 10SM FEW024 SCT200 22/12 A2993 RMK AO2 SLP135 T02220122

More Conditions Fewer Conditions

Pressure 29.93 in
Visibility 10.0 miles
Clouds Few 2400 ft
Scattered Clouds 20000 ft
Dew Point 55 °F
Humidity 59%
Rainfall in
Snow Depth Not available.
UV 2 out of 12
Pollen 4.30 out of 12
Air Quality Not available.
Flu Activity Not available.
METAR KOAK 040053Z 26017KT 10SM FEW024 SCT200 22/12 A2993 RMK AO2 SLP135 T02220122

More Conditions Fewer Conditions

10-Day Weather Forecast

×

Almanac

Astronomy

Aug. 03, 2015 Rise Set
Actual Time
Civil Twilight
Nautical Twilight
Astronomical Twilight
Moon
Length of Visible Light
Length of Day
Tomorrow will be .
, % of the Moon is Illuminated

Today's Extremes

State Highs State Lows

Community

WunderPhotos

Upload Photos

1,843,805 photos uploaded!

WunderBlogs® & News

Nearby

Air Quality

  Air Quality AQ Index Pollutant
Not available.

Snow Depth

Station Depth Elevation

Earthquake Activity

City Distance Mag. Time & Date
Minimum magnitude displayed is 2.5.

Coastal Water Temperatures

Place Temperature

Stations

Nearby Weather Stations

Station Location Temp. Windchill Dew Point Humidity Wind Precip. Elev Updated Type